This is the latest recevied weather packets stored in our database for station/object IW1CBG-23. If no packets are shown the sender has not sent any weather packets the latest 10 day(s).
| Time | Temp. | Humidity | Pressure | Rain* | Wind** | Luminosity | Snow |
|---|---|---|---|---|---|---|---|
| 1777283114 | 19.44° C | 61% | 1014.8 hPa | - | - | - | - |
| 1777281874 | 18.89° C | 68% | 1014.9 hPa | - | - | - | - |
| 1777279393 | 16.67° C | 78% | 1015 hPa | - | - | - | - |
| 1777278156 | 16.11° C | 83% | 1014.9 hPa | - | - | - | - |
| 1777276919 | 16.11° C | 83% | 1014.9 hPa | - | - | - | - |
| 1777275686 | 16.11° C | 85% | 1014.9 hPa | - | - | - | - |
| 1777274445 | 15.56° C | 89% | 1014.8 hPa | - | - | - | - |
| 1777271966 | 13.89° C | 99% | 1014.7 hPa | - | - | - | - |
| 1777270728 | 13.89° C | 99% | 1014.7 hPa | - | - | - | - |
| 1777269490 | 13.33° C | 99% | 1014.6 hPa | - | - | - | - |
| 1777268252 | 12.78° C | 99% | 1014.5 hPa | - | - | - | - |
| 1777267015 | 12.78° C | 99% | 1014.2 hPa | - | - | - | - |
| 1777265776 | 12.78° C | 99% | 1014.1 hPa | - | - | - | - |
| 1777264538 | 12.22° C | 99% | 1014 hPa | - | - | - | - |
| 1777263300 | 12.22° C | 99% | 1013.9 hPa | - | - | - | - |
| 1777262063 | 12.22° C | 99% | 1013.9 hPa | - | - | - | - |
| 1777260826 | 12.22° C | 99% | 1013.9 hPa | - | - | - | - |
| 1777259588 | 12.22° C | 99% | 1013.9 hPa | - | - | - | - |
| 1777258350 | 12.22° C | 99% | 1014 hPa | - | - | - | - |
| 1777257113 | 12.78° C | 99% | 1013.7 hPa | - | - | - | - |
| 1777255876 | 12.78° C | 99% | 1013.7 hPa | - | - | - | - |
| 1777254639 | 13.33° C | 98% | 1013.7 hPa | - | - | - | - |
| 1777253400 | 12.78° C | 96% | 1013.7 hPa | - | - | - | - |
| 1777252162 | 13.33° C | 93% | 1014 hPa | - | - | - | - |
| 1777250925 | 13.33° C | 91% | 1014.2 hPa | - | - | - | - |
* Rain since midnight (hover to see other rain measurements)
** Current wind speed in m/s (hover to see current wind gust speed)